Time;durP1;ratioP1;P1;durP2;ratioP2;P2;SDS_P1;SDS_P2;PMS_P1;PMS_P2;Temp;Humidity;BMP_temperature;BMP_pressure;BME280_temperature;BME280_humidity;BME280_pressure;Samples;Min_cycle;Max_cycle;Signal;HPM_P1;HPM_P2
2023/07/04 00:00:28;;;;;;;20.73;12.47;;;;;;;21.57;83.00;100322.25;124308;1102;102348;-75
2023/07/04 00:03:20;;;;;;;21.07;12.50;;;;;;;21.51;83.11;100324.07;124276;1102;104339;-74
2023/07/04 00:05:53;;;;;;;19.47;12.70;;;;;;;21.49;82.41;100328.56;124312;1102;101833;-75
2023/07/04 00:08:26;;;;;;;21.67;11.87;;;;;;;21.50;82.30;100325.00;124285;1102;104211;-75
2023/07/04 00:10:58;;;;;;;21.27;12.27;;;;;;;21.52;83.15;100331.19;124278;1102;104248;-75
2023/07/04 00:13:30;;;;;;;21.52;12.47;;;;;;;21.59;83.62;100334.66;124354;1102;104236;-75
2023/07/04 00:16:02;;;;;;;19.97;12.40;;;;;;;21.63;83.11;100338.16;124287;1102;104098;-74
2023/07/04 00:18:36;;;;;;;20.17;11.67;;;;;;;21.63;83.48;100332.83;124306;1102;104181;-75
2023/07/04 00:21:12;;;;;;;20.10;11.53;;;;;;;21.63;83.56;100338.16;124320;1100;104322;-75
2023/07/04 00:23:46;;;;;;;19.57;11.93;;;;;;;21.64;83.47;100346.16;124350;1102;103673;-75
2023/07/04 00:26:17;;;;;;;;;;;;;;;21.63;82.73;100343.50;124321;1102;104169;-75
2023/07/04 00:28:48;;;;;;;19.00;11.70;;;;;;;21.63;83.35;100343.50;124362;1102;104179;-75
2023/07/04 00:31:23;;;;;;;19.53;12.40;;;;;;;21.61;83.17;100339.98;124299;1100;104212;-74
2023/07/04 00:33:55;;;;;;;19.37;11.90;;;;;;;21.60;83.15;100340.88;124270;1102;104185;-75
2023/07/04 00:36:29;;;;;;;22.30;12.70;;;;;;;21.56;83.60;100325.81;124234;1102;102278;-75
2023/07/04 00:39:00;;;;;;;19.80;12.23;;;;;;;21.53;83.72;100327.63;124240;1102;104067;-75
2023/07/04 00:41:32;;;;;;;17.80;11.63;;;;;;;21.56;84.13;100331.16;124277;1102;104204;-75
2023/07/04 00:44:09;;;;;;;;;;;;;;;21.54;83.85;100344.52;124266;1102;104265;-75
2023/07/04 00:46:53;;;;;;;20.27;12.53;;;;;;;21.56;83.54;100341.83;124361;1102;104201;-75
2023/07/04 00:49:26;;;;;;;;;;;;;;;21.52;82.59;100344.54;124311;1102;104270;-75
2023/07/04 00:52:04;;;;;;;23.50;12.40;;;;;;;21.51;83.72;100352.56;124357;1102;104057;-76
2023/07/04 00:54:40;;;;;;;21.30;12.23;;;;;;;21.51;83.63;100356.11;124351;1102;104175;-75
2023/07/04 00:57:14;;;;;;;21.03;12.20;;;;;;;21.53;84.11;100354.33;124283;1102;104166;-76
2023/07/04 00:59:48;;;;;;;21.70;12.63;;;;;;;21.51;84.34;100356.11;124355;1102;104175;-75
2023/07/04 01:02:23;;;;;;;19.67;12.67;;;;;;;21.52;84.23;100357.02;124288;1102;104124;-76
2023/07/04 01:04:55;;;;;;;20.40;12.53;;;;;;;21.52;84.54;100360.55;124182;1102;104189;-76
2023/07/04 01:07:32;;;;;;;21.57;13.50;;;;;;;21.52;84.59;100371.23;124343;1102;101938;-75
2023/07/04 01:10:10;;;;;;;19.37;12.00;;;;;;;21.45;84.10;100371.28;124315;1102;104178;-75
2023/07/04 01:12:42;;;;;;;21.27;12.33;;;;;;;21.39;83.79;100374.89;124247;1102;101993;-75
2023/07/04 01:15:13;;;;;;;19.13;12.00;;;;;;;21.36;84.29;100377.59;124281;1102;104248;-75
2023/07/04 01:17:44;;;;;;;19.93;11.93;;;;;;;21.39;84.34;100377.56;124318;1102;101839;-75
2023/07/04 01:20:17;;;;;;;22.17;12.33;;;;;;;21.35;84.89;100378.52;124239;1102;104163;-75
2023/07/04 01:22:59;;;;;;;21.93;12.50;;;;;;;21.33;84.39;100377.62;124316;1102;104280;-75
2023/07/04 01:25:36;;;;;;;22.07;13.07;;;;;;;21.28;84.99;100380.34;124358;1102;104245;-75
2023/07/04 01:28:08;;;;;;;20.40;12.83;;;;;;;21.23;84.91;100381.31;124265;1102;104163;-75
2023/07/04 01:30:43;;;;;;;21.83;12.97;;;;;;;21.19;85.22;100376.00;124323;1102;104182;-75
2023/07/04 01:33:16;;;;;;;21.80;12.60;;;;;;;21.20;84.50;100382.21;124309;1102;104248;-76
2023/07/04 01:35:50;;;;;;;20.80;13.03;;;;;;;21.19;84.61;100377.77;124360;1102;104236;-75
2023/07/04 01:38:22;;;;;;;22.00;13.43;;;;;;;21.17;84.62;100377.78;124328;1102;101969;-75
2023/07/04 01:40:53;;;;;;;19.90;12.67;;;;;;;21.19;85.33;100380.44;124374;1102;104248;-75
2023/07/04 01:43:24;;;;;;;20.57;12.40;;;;;;;21.19;85.46;100381.34;124397;1102;104181;-76
2023/07/04 01:45:55;;;;;;;20.20;12.77;;;;;;;21.24;85.39;100377.72;124329;1102;104179;-75
2023/07/04 01:48:26;;;;;;;20.77;12.50;;;;;;;21.27;85.43;100381.27;124395;1102;104185;-75
2023/07/04 01:50:58;;;;;;;20.10;12.17;;;;;;;21.28;85.39;100385.67;124347;1102;104757;-75
2023/07/04 01:53:29;;;;;;;18.50;12.17;;;;;;;21.28;84.99;100385.67;124331;1102;104456;-75
2023/07/04 01:56:00;;;;;;;19.87;12.63;;;;;;;21.29;85.21;100384.79;124378;1102;104182;-75
2023/07/04 01:58:32;;;;;;;21.77;13.60;;;;;;;21.28;85.30;100384.80;124314;1102;104277;-75
2023/07/04 02:01:03;;;;;;;20.93;13.33;;;;;;;21.27;85.46;100381.27;124352;1102;104744;-75
2023/07/04 02:03:36;;;;;;;21.50;13.27;;;;;;;21.26;84.86;100383.95;124312;1102;104250;-75
2023/07/04 02:06:08;;;;;;;20.83;13.27;;;;;;;21.21;85.19;100383.09;124339;1101;104175;-75
2023/07/04 02:08:39;;;;;;;;;;;;;;;21.12;84.96;100389.41;124315;1102;104053;-75
2023/07/04 02:11:11;;;;;;;20.53;13.53;;;;;;;21.06;85.54;100387.67;124367;1102;104316;-75
2023/07/04 02:13:43;;;;;;;21.77;12.73;;;;;;;21.05;85.48;100383.27;124304;1102;104179;-76
2023/07/04 02:16:14;;;;;;;19.90;12.70;;;;;;;21.06;86.06;100381.47;124238;1102;101975;-75
2023/07/04 02:18:45;;;;;;;20.67;12.97;;;;;;;21.06;86.03;100377.00;124305;1102;104316;-75
2023/07/04 02:21:18;;;;;;;21.13;12.97;;;;;;;21.08;85.74;100385.00;124325;1102;104179;-75
2023/07/04 02:23:49;;;;;;;22.90;13.50;;;;;;;21.04;85.59;100388.61;124354;1102;104248;-75
2023/07/04 02:26:20;;;;;;;20.50;13.20;;;;;;;21.01;86.30;100379.72;124380;1102;104243;-75
2023/07/04 02:28:52;;;;;;;21.40;14.27;;;;;;;21.00;86.36;100379.73;124409;1102;101996;-76
2023/07/04 02:31:23;;;;;;;22.93;13.47;;;;;;;21.01;85.98;100376.17;124266;1102;104261;-76
2023/07/04 02:33:55;;;;;;;22.65;13.20;;;;;;;21.00;86.08;100385.06;124338;1102;102223;-75
2023/07/04 02:36:26;;;;;;;21.03;13.50;;;;;;;20.99;86.80;100388.66;124365;1102;104175;-76
2023/07/04 02:38:57;;;;;;;21.80;13.67;;;;;;;20.97;86.04;100390.42;124384;1101;104201;-75
2023/07/04 02:41:30;;;;;;;23.90;14.10;;;;;;;20.97;85.91;100387.76;124357;1102;101908;-75
2023/07/04 02:44:01;;;;;;;20.77;13.43;;;;;;;20.97;86.92;100393.09;124299;1102;102446;-75
2023/07/04 02:46:33;;;;;;;22.57;14.70;;;;;;;20.96;86.53;100394.02;124380;1101;101935;-76
2023/07/04 02:49:06;;;;;;;25.00;14.97;;;;;;;20.92;86.54;100392.26;124268;1102;104267;-76
2023/07/04 02:51:38;;;;;;;21.97;14.97;;;;;;;20.85;86.82;100390.53;124347;1102;104265;-76
2023/07/04 02:54:09;;;;;;;23.87;13.90;;;;;;;20.76;86.42;100400.38;124411;1102;104185;-76
2023/07/04 02:56:42;;;;;;;25.20;14.45;;;;;;;20.71;86.53;100394.21;124345;1102;102568;-75
2023/07/04 02:59:14;;;;;;;22.83;14.43;;;;;;;20.70;86.74;100405.76;124362;1102;104297;-75
2023/07/04 03:01:45;;;;;;;20.73;14.40;;;;;;;20.72;87.19;100409.29;124364;1102;101916;-76
2023/07/04 03:04:18;;;;;;;24.98;14.58;;;;;;;20.70;87.30;100408.42;124386;1102;104169;-75
2023/07/04 03:06:49;;;;;;;21.80;14.53;;;;;;;20.72;87.66;100413.75;124386;1102;102095;-76
2023/07/04 03:09:21;;;;;;;26.90;14.13;;;;;;;20.73;87.06;100423.52;124355;1102;104361;-76
2023/07/04 03:11:52;;;;;;;22.63;14.60;;;;;;;20.73;88.00;100421.73;124361;1102;104251;-76
2023/07/04 03:14:26;;;;;;;23.43;14.87;;;;;;;20.72;87.82;100422.62;124297;1102;102002;-76
2023/07/04 03:16:58;;;;;;;22.35;14.73;;;;;;;20.70;87.97;100419.09;124385;1102;101860;-75
2023/07/04 03:19:29;;;;;;;22.63;14.63;;;;;;;20.74;87.61;100410.19;124338;1102;104275;-75
2023/07/04 03:22:01;;;;;;;21.70;14.20;;;;;;;20.83;87.66;100412.78;124300;1102;102108;-75
2023/07/04 03:24:32;;;;;;;22.30;14.60;;;;;;;20.87;87.78;100410.97;124393;1102;104060;-76
2023/07/04 03:27:04;;;;;;;24.77;14.57;;;;;;;20.92;88.53;100411.80;124329;1102;104281;-76
2023/07/04 03:29:36;;;;;;;25.33;16.27;;;;;;;20.92;88.22;100408.27;124466;1101;104182;-76
2023/07/04 03:32:09;;;;;;;25.27;14.93;;;;;;;20.90;88.07;100405.61;124379;1102;101983;-76
2023/07/04 03:34:40;;;;;;;24.63;15.77;;;;;;;20.91;87.59;100403.81;124352;1102;104304;-76
2023/07/04 03:37:12;;;;;;;23.37;14.77;;;;;;;20.93;88.33;100408.25;124348;1102;104214;-76
2023/07/04 03:39:43;;;;;;;23.97;15.13;;;;;;;20.98;88.01;100408.21;124427;1102;103183;-75
2023/07/04 03:42:14;;;;;;;24.60;15.07;;;;;;;21.00;88.06;100407.31;124455;1102;104159;-76
2023/07/04 03:44:46;;;;;;;25.23;16.30;;;;;;;21.01;88.55;100402.84;124415;1102;102323;-76
2023/07/04 03:47:17;;;;;;;22.97;15.73;;;;;;;20.99;88.36;100405.53;124392;1102;104415;-76
2023/07/04 03:49:48;;;;;;;22.33;15.03;;;;;;;20.99;87.96;100402.86;124507;1102;103132;-76
2023/07/04 03:52:19;;;;;;;25.37;15.33;;;;;;;21.00;88.42;100411.73;124611;1102;101855;-75
2023/07/04 03:54:52;;;;;;;23.43;15.30;;;;;;;21.02;88.54;100409.97;124677;1102;104309;-76
2023/07/04 03:57:24;;;;;;;24.83;15.13;;;;;;;21.04;88.75;100401.95;124669;1100;104198;-78
2023/07/04 03:59:55;;;;;;;24.23;16.57;;;;;;;21.07;89.17;100404.59;124517;1102;104352;-76
2023/07/04 04:02:27;;;;;;;26.67;15.87;;;;;;;21.12;89.49;100406.30;124521;1102;101721;-76
2023/07/04 04:04:58;;;;;;;24.53;16.30;;;;;;;21.19;89.11;100404.45;124446;1101;101823;-77
2023/07/04 04:07:29;;;;;;;25.17;17.37;;;;;;;21.24;88.78;100402.64;124521;1102;101808;-76
2023/07/04 04:10:00;;;;;;;24.00;15.80;;;;;;;21.31;88.77;100407.00;124416;1102;104309;-76
2023/07/04 04:12:32;;;;;;;24.63;16.40;;;;;;;21.38;89.73;100413.18;124360;1102;104226;-77
2023/07/04 04:15:03;;;;;;;23.63;16.13;;;;;;;21.42;89.76;100412.23;124575;1100;104175;-77
2023/07/04 04:17:36;;;;;;;24.40;16.27;;;;;;;21.47;89.72;100401.50;124573;1101;104271;-77
2023/07/04 04:20:10;;;;;;;25.43;16.63;;;;;;;21.50;89.43;100410.42;124600;1102;104280;-76
2023/07/04 04:22:45;;;;;;;24.60;16.17;;;;;;;21.59;90.24;100413.87;124521;1102;104387;-76
2023/07/04 04:25:17;;;;;;;22.60;15.37;;;;;;;21.70;89.28;100412.84;124616;1102;104269;-75
2023/07/04 04:27:48;;;;;;;24.37;15.03;;;;;;;21.81;89.85;100418.05;124428;1102;104194;-77
2023/07/04 04:30:20;;;;;;;23.60;15.47;;;;;;;21.90;89.40;100417.07;124492;1102;104255;-75
2023/07/04 04:32:51;;;;;;;24.10;14.67;;;;;;;21.94;89.41;100423.25;124367;1102;101956;-75
2023/07/04 04:35:23;;;;;;;22.03;14.13;;;;;;;21.99;89.86;100422.30;124217;1102;103842;-74
2023/07/04 04:37:55;;;;;;;23.97;14.50;;;;;;;22.07;89.60;100419.53;124278;1102;104176;-76
2023/07/04 04:40:29;;;;;;;21.33;13.60;;;;;;;22.17;89.43;100417.61;124360;1102;102931;-75
2023/07/04 04:43:00;;;;;;;22.80;14.13;;;;;;;22.25;89.47;100424.64;124461;1102;104251;-73
2023/07/04 04:45:31;;;;;;;21.10;13.77;;;;;;;22.33;89.49;100431.68;124561;1102;102325;-76
2023/07/04 04:48:10;;;;;;;21.13;13.10;;;;;;;22.39;89.37;100427.16;124354;1102;104267;-76
2023/07/04 04:50:46;;;;;;;22.13;13.60;;;;;;;22.46;88.82;100421.72;124488;1102;102209;-78
2023/07/04 04:53:17;;;;;;;22.53;14.00;;;;;;;22.53;89.19;100426.05;124330;1102;102053;-79
2023/07/04 04:55:48;;;;;;;21.43;14.27;;;;;;;22.54;89.20;100431.38;124905;1100;104166;-78
2023/07/04 04:58:20;;;;;;;23.47;14.00;;;;;;;22.63;88.70;100440.19;124717;1102;104276;-75
2023/07/04 05:00:51;;;;;;;21.57;13.90;;;;;;;22.69;89.19;100432.95;124303;1102;104291;-77
2023/07/04 05:03:23;;;;;;;20.93;12.63;;;;;;;22.75;88.64;100438.20;125185;1102;104211;-77
2023/07/04 05:05:54;;;;;;;22.00;13.57;;;;;;;22.80;88.61;100439.01;125075;1102;102119;-77
2023/07/04 05:08:26;;;;;;;21.40;13.67;;;;;;;22.87;88.75;100437.11;125608;1101;102044;-75
2023/07/04 05:11:04;;;;;;;22.27;12.83;;;;;;;22.92;88.20;100443.30;125257;1102;104220;-74
2023/07/04 05:13:37;;;;;;;22.30;12.57;;;;;;;22.97;87.73;100437.87;124817;1099;102054;-73
2023/07/04 05:16:11;;;;;;;21.77;12.20;;;;;;;22.95;87.30;100421.84;124441;1102;104265;-74
2023/07/04 05:18:42;;;;;;;;;;;;;;;23.06;87.17;100439.48;125734;1102;104223;-73
2023/07/04 05:21:15;;;;;;;21.90;11.63;;;;;;;23.13;87.54;100439.39;124682;1102;104198;-73
2023/07/04 05:23:49;;;;;;;18.40;11.57;;;;;;;23.22;87.35;100440.13;125154;1102;104220;-74
2023/07/04 05:26:23;;;;;;;20.10;11.87;;;;;;;23.30;87.38;100438.23;125109;1102;104264;-77
2023/07/04 05:28:55;;;;;;;16.82;11.00;;;;;;;23.37;87.25;100437.19;125202;1102;104223;-79
2023/07/04 05:31:29;;;;;;;20.00;11.73;;;;;;;23.45;86.99;100442.41;125049;1101;104169;-74
2023/07/04 05:34:00;;;;;;;20.20;11.37;;;;;;;23.50;86.84;100445.90;125124;1102;104246;-75
2023/07/04 05:36:33;;;;;;;18.70;10.73;;;;;;;23.52;85.58;100444.06;125323;1102;101855;-76
2023/07/04 05:39:07;;;;;;;18.82;9.58;;;;;;;23.56;86.08;100458.27;124899;1101;102317;-74
2023/07/04 05:41:39;;;;;;;16.93;9.83;;;;;;;23.58;85.83;100456.47;124891;1102;104175;-73
2023/07/04 05:44:11;;;;;;;15.20;9.33;;;;;;;23.63;85.44;100460.81;126014;1101;104227;-74
2023/07/04 05:46:42;;;;;;;16.27;9.57;;;;;;;23.68;85.57;100450.91;125193;1101;102044;-75
2023/07/04 05:49:14;;;;;;;16.03;10.17;;;;;;;23.77;85.52;100459.67;125478;1102;102007;-78
2023/07/04 05:51:46;;;;;;;16.73;9.83;;;;;;;23.84;85.41;100462.23;125061;1102;101834;-77
2023/07/04 05:54:17;;;;;;;17.47;9.60;;;;;;;23.93;85.46;100471.00;124925;1102;104176;-77
2023/07/04 05:56:55;;;;;;;18.23;9.60;;;;;;;24.02;85.20;100470.81;124929;1102;102152;-73
2023/07/04 05:59:27;;;;;;;15.97;8.60;;;;;;;24.09;84.80;100471.56;124608;1102;102092;-73
2023/07/04 06:01:59;;;;;;;15.07;8.67;;;;;;;24.15;84.28;100479.48;124558;1102;104178;-73
2023/07/04 06:04:34;;;;;;;16.57;8.20;;;;;;;24.20;84.36;100480.29;124635;1102;104385;-74
2023/07/04 06:07:06;;;;;;;12.43;7.97;;;;;;;24.23;83.38;100475.73;125442;1102;104162;-71
2023/07/04 06:09:41;;;;;;;13.95;8.18;;;;;;;24.29;83.33;100485.42;124294;1102;102179;-72
2023/07/04 06:12:27;;;;;;;17.23;7.97;;;;;;;24.34;82.84;100480.87;124896;1101;104196;-73
2023/07/04 06:15:04;;;;;;;19.20;8.27;;;;;;;24.40;82.61;100480.73;126175;1098;102439;-76
2023/07/04 06:17:39;;;;;;;15.17;8.43;;;;;;;24.45;82.24;100474.37;125528;1102;102141;-78
2023/07/04 06:20:18;;;;;;;11.13;7.50;;;;;;;24.53;82.16;100483.16;125911;1100;104233;-77
2023/07/04 06:22:57;;;;;;;15.07;7.40;;;;;;;24.59;82.00;100485.73;125306;1102;104268;-76
2023/07/04 06:28:09;;;;;;;12.97;7.57;;;;;;;24.71;81.23;100476.50;125929;1101;104284;-76
2023/07/04 06:30:48;;;;;;;12.97;7.10;;;;;;;24.76;81.08;100475.48;125986;1102;104230;-80
2023/07/04 06:33:23;;;;;;;16.60;7.90;;;;;;;24.83;80.58;100472.66;125664;1102;104351;-78
2023/07/04 06:36:00;;;;;;;13.40;7.73;;;;;;;24.90;80.36;100477.84;126230;1100;101723;-75
2023/07/04 06:38:34;;;;;;;15.27;7.83;;;;;;;25.01;79.96;100479.38;126093;1101;101783;-75
2023/07/04 06:41:20;;;;;;;14.37;8.00;;;;;;;25.11;79.91;100479.11;126391;1101;101797;-77
2023/07/04 06:43:54;;;;;;;14.13;7.77;;;;;;;25.18;79.33;100476.27;126886;1100;102274;-74
2023/07/04 06:46:35;;;;;;;12.13;7.37;;;;;;;25.20;79.00;100477.14;125568;1102;104327;-78
2023/07/04 06:49:10;;;;;;;13.17;7.13;;;;;;;25.30;78.20;100476.00;125667;1102;102561;-76
2023/07/04 06:51:41;;;;;;;11.93;7.47;;;;;;;25.35;78.10;100479.44;126968;1101;104169;-75
2023/07/04 06:54:16;;;;;;;13.07;7.30;;;;;;;25.42;77.96;100472.99;126367;1101;102019;-74
2023/07/04 06:56:49;;;;;;;14.43;7.50;;;;;;;25.51;77.61;100476.35;124841;1102;101970;-75
2023/07/04 06:59:23;;;;;;;14.63;7.93;;;;;;;25.59;76.73;100482.42;124716;1102;102059;-74
2023/07/04 07:01:54;;;;;;;13.47;7.23;;;;;;;25.69;76.71;100472.30;125659;1100;101931;-76
2023/07/04 07:04:31;;;;;;;13.53;7.33;;;;;;;25.73;74.89;100472.17;126526;1101;104092;-78
2023/07/04 07:07:08;;;;;;;13.95;7.60;;;;;;;25.83;75.41;100470.98;124914;1102;102132;-74
2023/07/04 07:09:46;;;;;;;12.10;8.10;;;;;;;25.87;74.57;100468.20;124568;1102;102610;-74
2023/07/04 07:12:19;;;;;;;11.97;7.20;;;;;;;26.01;74.82;100471.44;125221;1102;102065;-75
2023/07/04 07:14:51;;;;;;;12.17;7.33;;;;;;;26.17;74.28;100472.73;125869;1101;104201;-77
2023/07/04 07:17:26;;;;;;;11.50;7.20;;;;;;;26.35;74.00;100468.63;126526;1098;101785;-78
2023/07/04 07:20:10;;;;;;;13.17;7.30;;;;;;;26.47;73.20;100464.66;126864;1098;102144;-77
2023/07/04 07:22:51;;;;;;;11.73;7.33;;;;;;;26.69;73.06;100466.72;126325;1099;101916;-78
2023/07/04 07:25:35;;;;;;;13.63;7.40;;;;;;;26.84;72.57;100460.84;125375;1102;102148;-76
2023/07/04 07:28:10;;;;;;;11.73;6.77;;;;;;;27.01;72.68;100467.51;125770;1100;104272;-76
2023/07/04 07:30:49;;;;;;;10.40;6.93;;;;;;;27.20;72.38;100455.17;125994;1100;101840;-77
2023/07/04 07:33:25;;;;;;;13.20;7.27;;;;;;;27.43;71.38;100465.19;126309;1100;101972;-77
2023/07/04 07:35:56;;;;;;;12.80;7.43;;;;;;;27.60;70.66;100463.73;126257;1099;117878;-76
2023/07/04 07:38:28;;;;;;;14.00;7.40;;;;;;;27.78;70.37;100456.77;127115;1098;102032;-76
2023/07/04 07:41:04;;;;;;;13.03;6.67;;;;;;;27.99;69.40;100457.84;124732;1099;102112;-76
2023/07/04 07:43:45;;;;;;;11.67;7.07;;;;;;;28.15;69.40;100458.14;124611;1102;101887;-75
2023/07/04 07:46:19;;;;;;;12.20;6.87;;;;;;;28.36;68.75;100464.55;125930;1101;101810;-76
2023/07/04 07:48:53;;;;;;;13.00;7.27;;;;;;;28.55;67.93;100456.59;124954;1102;104176;-78
2023/07/04 07:51:25;;;;;;;12.87;7.43;;;;;;;28.70;66.30;100465.91;125045;1102;102174;-75
2023/07/04 07:54:10;;;;;;;10.80;6.30;;;;;;;28.77;65.69;100455.77;125283;1102;104195;-77
2023/07/04 07:56:45;;;;;;;10.53;6.33;;;;;;;28.93;64.99;100456.88;126053;1101;111029;-75
2023/07/04 07:59:31;;;;;;;11.50;6.77;;;;;;;29.10;64.46;100447.20;125310;1101;102583;-75
2023/07/04 08:02:19;;;;;;;12.07;7.07;;;;;;;29.34;64.19;100458.80;125984;1101;101932;-76
2023/07/04 08:04:55;;;;;;;10.13;6.75;;;;;;;29.32;63.39;100452.59;126004;1102;104254;-82
2023/07/04 08:07:37;;;;;;;11.93;6.80;;;;;;;29.36;62.67;100456.94;125537;1101;102418;-77
2023/07/04 08:10:15;;;;;;;11.00;6.40;;;;;;;29.52;62.15;100454.44;126289;1101;101693;-74
2023/07/04 08:12:47;;;;;;;11.47;6.93;;;;;;;29.54;61.75;100463.34;125406;1102;102418;-76
2023/07/04 08:15:18;;;;;;;11.13;7.10;;;;;;;29.58;61.11;100457.73;124804;1102;102333;-74
2023/07/04 08:17:52;;;;;;;14.80;7.10;;;;;;;29.77;61.23;100448.81;125593;1100;102246;-77
2023/07/04 08:20:24;;;;;;;11.93;7.00;;;;;;;29.88;61.01;100459.17;126236;1100;104271;-76
2023/07/04 08:22:56;;;;;;;11.33;6.60;;;;;;;29.89;60.24;100459.11;124535;1101;102325;-74
2023/07/04 08:25:28;;;;;;;14.07;6.90;;;;;;;30.11;60.25;100458.13;126060;1101;102074;-74
2023/07/04 08:28:10;;;;;;;9.43;6.60;;;;;;;30.27;59.69;100458.28;125491;1102;102253;-77
2023/07/04 08:30:42;;;;;;;9.10;6.40;;;;;;;30.45;59.58;100464.69;126126;1101;104299;-76
2023/07/04 08:33:17;;;;;;;11.33;6.90;;;;;;;30.58;58.74;100464.97;125525;1102;102083;-75
2023/07/04 08:35:57;;;;;;;13.87;7.50;;;;;;;30.71;58.07;100463.41;126781;1100;101838;-76
2023/07/04 08:38:28;;;;;;;17.90;6.90;;;;;;;30.55;57.47;100465.98;125966;1101;104241;-75
2023/07/04 08:41:02;;;;;;;13.47;6.90;;;;;;;30.71;57.37;100463.41;124540;1102;104287;-75
2023/07/04 08:43:41;;;;;;;13.80;6.57;;;;;;;30.77;56.53;100462.23;124537;1102;104242;-75
2023/07/04 08:46:19;;;;;;;11.90;7.30;;;;;;;30.79;56.54;100458.52;124768;1102;102258;-76
2023/07/04 08:48:50;;;;;;;13.13;6.70;;;;;;;30.75;56.25;100456.89;125745;1100;101842;-75
2023/07/04 08:51:30;;;;;;;15.40;6.83;;;;;;;30.99;56.07;100456.66;124641;1102;101836;-75
2023/07/04 08:54:11;;;;;;;11.73;6.93;;;;;;;31.14;55.76;100464.02;124302;1100;104291;-77
2023/07/04 08:56:43;;;;;;;11.57;7.23;;;;;;;31.15;55.32;100449.52;124226;1102;102336;-76
2023/07/04 08:59:27;;;;;;;12.70;7.00;;;;;;;31.10;54.65;100454.27;124411;1102;104176;-77
2023/07/04 09:02:23;;;;;;;11.93;7.17;;;;;;;31.15;54.42;100452.23;124299;1102;104163;-76
2023/07/04 09:05:05;;;;;;;9.15;6.45;;;;;;;31.15;53.94;100454.04;124285;1101;101955;-77
2023/07/04 09:07:46;;;;;;;11.17;6.83;;;;;;;31.30;53.59;100458.67;124317;1102;102153;-77
2023/07/04 09:10:28;;;;;;;10.70;6.87;;;;;;;31.27;52.92;100458.83;124277;1102;104242;-78
2023/07/04 09:13:09;;;;;;;11.80;7.23;;;;;;;31.16;52.92;100467.52;125394;1100;102408;-79
2023/07/04 09:15:47;;;;;;;11.50;7.20;;;;;;;31.19;52.41;100458.36;124146;1102;104243;-76
2023/07/04 09:18:32;;;;;;;14.80;7.63;;;;;;;31.29;52.22;100453.34;124247;1102;104169;-80
2023/07/04 09:21:10;;;;;;;11.23;6.57;;;;;;;31.41;51.53;100457.26;124376;1102;104189;-79
2023/07/04 09:23:47;;;;;;;10.37;7.20;;;;;;;31.70;51.06;100451.20;124659;1102;104447;-78
2023/07/04 09:26:40;;;;;;;11.10;6.60;;;;;;;31.98;51.13;100456.99;124824;1100;104241;-79
2023/07/04 09:29:19;;;;;;;12.20;7.70;;;;;;;31.94;50.43;100442.69;124539;1102;102122;-79
2023/07/04 09:31:57;;;;;;;13.27;7.27;;;;;;;32.12;50.46;100445.42;125314;1102;102140;-82
2023/07/04 09:34:37;;;;;;;14.73;7.40;;;;;;;32.15;49.02;100453.36;125823;1102;102137;-84
2023/07/04 09:37:16;;;;;;;10.03;6.93;;;;;;;32.27;49.59;100447.25;125242;1102;105444;-80
2023/07/04 09:39:50;;;;;;;10.10;7.40;;;;;;;32.28;49.33;100448.14;125267;1102;101813;-78
2023/07/04 09:42:24;;;;;;;12.10;7.53;;;;;;;32.14;49.06;100444.34;125782;1101;104364;-80
2023/07/04 09:44:56;;;;;;;16.33;7.67;;;;;;;32.19;48.77;100449.52;124979;1102;101997;-80
2023/07/04 09:47:30;;;;;;;11.27;7.50;;;;;;;32.00;48.74;100452.34;124646;1102;102038;-80
2023/07/04 09:50:13;;;;;;;;;;;;;;;31.80;47.44;100446.15;124992;1102;104185;-81
2023/07/04 09:52:44;;;;;;;11.33;7.13;;;;;;;31.62;48.20;100441.70;124678;1102;101926;-79
2023/07/04 09:55:42;;;;;;;;;;;;;;;;;;;;;
2023/07/04 09:58:28;;;;;;;13.80;6.73;;;;;;;31.74;47.87;100441.05;126329;1101;102590;-80
2023/07/04 10:01:09;;;;;;;13.50;7.20;;;;;;;31.63;47.88;100443.47;125836;1102;102044;-80
2023/07/04 10:03:42;;;;;;;10.47;6.83;;;;;;;31.54;47.73;100431.30;124857;1102;104251;-79
2023/07/04 10:06:43;;;;;;;13.33;7.57;;;;;;;31.65;47.63;100428.88;124559;1102;104253;-82
2023/07/04 10:09:54;;;;;;;14.77;8.50;;;;;;;31.64;47.69;100431.67;125045;1102;111135;-82
2023/07/04 10:12:30;;;;;;;11.43;7.33;;;;;;;31.60;47.67;100427.36;124852;1102;102894;-75
2023/07/04 10:15:03;;;;;;;13.67;7.37;;;;;;;31.62;47.73;100430.86;124902;1102;104191;-77
2023/07/04 10:17:39;;;;;;;14.07;6.97;;;;;;;31.81;47.71;100425.34;124923;1102;104323;-76
2023/07/04 10:20:17;;;;;;;12.07;7.23;;;;;;;31.89;47.51;100423.95;124589;1102;104140;-79
2023/07/04 10:22:54;;;;;;;12.23;7.03;;;;;;;31.67;47.50;100426.95;124665;1102;103105;-82
2023/07/04 10:25:38;;;;;;;12.80;7.47;;;;;;;31.41;47.34;100422.88;124768;1102;104239;-76
2023/07/04 10:28:17;;;;;;;11.38;6.87;;;;;;;31.37;47.38;100424.02;124879;1100;104283;-81
2023/07/04 10:30:55;;;;;;;10.53;6.83;;;;;;;31.24;47.34;100428.31;124933;1102;104069;-83
2023/07/04 10:33:36;;;;;;;12.43;7.30;;;;;;;31.07;47.44;100421.95;124830;1102;104290;-77
2023/07/04 10:36:21;;;;;;;12.30;7.80;;;;;;;31.05;47.47;100415.70;125116;1102;101925;-77
2023/07/04 10:39:00;;;;;;;12.58;7.15;;;;;;;31.29;47.20;100418.09;126109;1101;101769;-79
2023/07/04 10:41:46;;;;;;;13.07;7.53;;;;;;;31.33;46.67;100422.41;125318;1101;104185;-77
2023/07/04 10:44:29;;;;;;;9.37;6.20;;;;;;;31.36;46.79;100422.25;124885;1102;104309;-80
2023/07/04 10:47:11;;;;;;;14.50;6.63;;;;;;;31.18;46.26;100414.13;126006;1099;102029;-83
2023/07/04 10:49:55;;;;;;;9.80;6.25;;;;;;;31.21;46.47;100414.92;125201;1101;102398;-77
2023/07/04 10:52:36;;;;;;;11.63;7.03;;;;;;;31.33;46.14;100412.44;124718;1102;102302;-80
2023/07/04 10:55:15;;;;;;;9.53;6.70;;;;;;;31.39;45.88;100408.54;124962;1102;102542;-80
2023/07/04 10:57:56;;;;;;;12.13;7.10;;;;;;;31.50;45.94;100402.55;124650;1102;104245;-76
2023/07/04 11:00:40;;;;;;;10.37;6.87;;;;;;;31.66;45.95;100402.63;124478;1102;104270;-75
2023/07/04 11:03:30;;;;;;;11.43;7.07;;;;;;;31.87;45.90;100401.47;125832;1101;101794;-76
2023/07/04 11:06:14;;;;;;;11.70;6.70;;;;;;;31.93;45.57;100393.94;125888;1102;102066;-78
2023/07/04 11:08:56;;;;;;;13.63;6.83;;;;;;;31.69;45.09;100389.77;125814;1100;101983;-77
2023/07/04 11:11:33;;;;;;;9.63;6.37;;;;;;;31.59;45.27;100385.82;125023;1102;108720;-75
2023/07/04 11:14:07;;;;;;;14.20;6.60;;;;;;;31.39;45.13;100392.27;126324;1100;102782;-77
2023/07/04 11:16:49;;;;;;;11.17;6.33;;;;;;;31.33;45.35;100392.59;125817;1101;101885;-74
2023/07/04 11:19:34;;;;;;;10.40;6.87;;;;;;;31.24;45.30;100390.37;125749;1100;102110;-77
2023/07/04 11:22:21;;;;;;;9.83;6.50;;;;;;;31.13;44.98;100389.08;124965;1102;104163;-77
2023/07/04 11:24:59;;;;;;;12.30;6.57;;;;;;;31.22;45.28;100386.88;124710;1102;104204;-75
2023/07/04 11:30:44;;;;;;;9.80;5.77;;;;;;;31.44;44.73;100376.63;124163;1102;104197;-74
2023/07/04 11:33:39;;;;;;;13.30;6.60;;;;;;;31.54;44.20;100372.52;124261;1102;104657;-76
2023/07/04 11:36:20;;;;;;;12.00;6.20;;;;;;;31.60;44.17;100371.31;124263;1102;104714;-75
2023/07/04 11:38:55;;;;;;;9.87;5.93;;;;;;;31.60;44.05;100367.70;124213;1102;101891;-79
2023/07/04 11:41:40;;;;;;;9.63;6.30;;;;;;;31.63;43.92;100357.56;124392;1102;101942;-77
2023/07/04 11:44:22;;;;;;;10.37;6.20;;;;;;;31.67;43.70;100355.58;124365;1102;104166;-77